createdAt,value
2022-11-26T00:00:19.276Z,8.76
2022-11-26T00:03:22.009Z,8.75
2022-11-26T00:06:32.679Z,8.69
2022-11-26T00:09:35.271Z,8.63
2022-11-26T00:12:39.285Z,8.53
2022-11-26T00:15:41.856Z,8.47
2022-11-26T00:18:44.686Z,8.44
2022-11-26T00:21:47.322Z,8.46
2022-11-26T00:24:50.460Z,8.44
2022-11-26T00:27:56.900Z,8.39
2022-11-26T00:31:01.998Z,8.31
2022-11-26T00:34:04.633Z,8.33
2022-11-26T00:37:10.186Z,8.28
2022-11-26T00:40:20.730Z,8.31
2022-11-26T00:43:24.676Z,8.23
2022-11-26T00:46:27.356Z,8.24
2022-11-26T00:49:29.991Z,8.26
2022-11-26T00:52:35.285Z,8.22
2022-11-26T00:55:40.020Z,8.23
2022-11-26T00:58:44.042Z,8.23
2022-11-26T01:01:46.861Z,8.21
2022-11-26T01:04:49.577Z,8.20
2022-11-26T01:07:53.474Z,8.15
2022-11-26T01:10:56.355Z,8.14
2022-11-26T01:14:00.827Z,8.05
2022-11-26T01:17:03.521Z,8.02
2022-11-26T01:20:22.811Z,7.99
2022-11-26T01:23:27.928Z,7.93
2022-11-26T01:26:35.423Z,7.89
2022-11-26T01:29:39.425Z,7.95
2022-11-26T01:32:42.022Z,7.88
2022-11-26T01:35:44.697Z,7.88
2022-11-26T01:38:47.420Z,7.85
2022-11-26T01:41:57.125Z,7.83
2022-11-26T01:45:01.127Z,7.79
2022-11-26T01:48:21.768Z,7.80
2022-11-26T01:51:28.017Z,7.74
2022-11-26T01:54:32.116Z,7.78
2022-11-26T01:57:38.484Z,7.77
2022-11-26T02:00:43.239Z,7.72
2022-11-26T02:03:53.892Z,7.69
2022-11-26T02:06:57.905Z,7.67
2022-11-26T02:10:00.796Z,7.59
2022-11-26T02:13:03.674Z,7.58
2022-11-26T02:16:15.434Z,7.57
2022-11-26T02:19:56.164Z,7.59
2022-11-26T02:23:31.464Z,7.54
2022-11-26T02:27:26.552Z,7.52
2022-11-26T02:30:35.102Z,7.48
2022-11-26T02:33:47.063Z,7.42
2022-11-26T02:36:54.303Z,7.47
2022-11-26T02:39:58.043Z,7.46
2022-11-26T02:43:00.716Z,7.44
2022-11-26T02:46:11.415Z,7.51
2022-11-26T02:49:20.006Z,7.49
2022-11-26T02:52:23.525Z,7.39
2022-11-26T02:55:30.311Z,7.32
2022-11-26T02:58:34.568Z,7.24
2022-11-26T03:01:44.849Z,7.26
2022-11-26T03:04:52.292Z,7.20
2022-11-26T03:07:56.091Z,7.20
2022-11-26T03:10:59.035Z,7.14
2022-11-26T03:14:01.693Z,7.16
2022-11-26T03:17:05.704Z,7.10
2022-11-26T03:20:09.630Z,7.15
2022-11-26T03:23:12.318Z,7.09
2022-11-26T03:26:14.966Z,7.08
2022-11-26T03:29:17.631Z,6.97
2022-11-26T03:32:21.608Z,6.95
2022-11-26T03:35:24.598Z,6.87
2022-11-26T03:38:27.344Z,6.90
2022-11-26T03:41:29.968Z,6.88
2022-11-26T03:44:32.825Z,6.81
2022-11-26T03:47:36.914Z,6.88
2022-11-26T03:50:39.527Z,6.95
2022-11-26T03:53:42.179Z,6.88
2022-11-26T03:56:44.792Z,6.87
2022-11-26T03:59:47.438Z,6.85
2022-11-26T04:02:51.513Z,6.91
2022-11-26T04:05:54.254Z,6.94
2022-11-26T04:08:56.897Z,6.95
2022-11-26T04:11:59.508Z,6.94
2022-11-26T04:15:02.189Z,6.95
2022-11-26T04:18:06.260Z,7.00
2022-11-26T04:21:09.748Z,6.91
2022-11-26T04:24:12.393Z,6.98
2022-11-26T04:27:15.098Z,6.93
2022-11-26T04:30:17.753Z,6.77
2022-11-26T04:33:21.771Z,7.00
2022-11-26T04:36:24.397Z,7.04
2022-11-26T04:39:27.061Z,7.17
2022-11-26T04:42:29.716Z,7.19
2022-11-26T04:45:32.348Z,7.21
2022-11-26T04:48:36.365Z,7.26
2022-11-26T04:51:39.022Z,7.25
2022-11-26T04:54:41.615Z,7.24
2022-11-26T04:57:44.620Z,7.21
2022-11-26T05:00:51.006Z,7.30
2022-11-26T05:03:55.370Z,7.25
2022-11-26T05:06:58.209Z,7.07
2022-11-26T05:10:00.878Z,7.24
2022-11-26T05:13:03.509Z,7.16
2022-11-26T05:16:06.753Z,7.06
2022-11-26T05:19:10.772Z,7.28
2022-11-26T05:22:13.403Z,7.11
2022-11-26T05:25:16.072Z,7.30
2022-11-26T05:28:18.758Z,7.40
2022-11-26T05:31:21.471Z,7.42
2022-11-26T05:34:25.699Z,7.49
2022-11-26T05:37:28.424Z,7.46
2022-11-26T05:40:31.063Z,7.36
2022-11-26T05:43:33.810Z,7.27
2022-11-26T05:46:37.107Z,7.19
2022-11-26T05:49:41.088Z,7.41
2022-11-26T05:52:43.690Z,7.47
2022-11-26T05:55:46.329Z,7.25
2022-11-26T05:58:49.022Z,7.40
2022-11-26T06:01:51.728Z,6.92
2022-11-26T06:04:55.771Z,6.92
2022-11-26T06:07:58.461Z,7.15
2022-11-26T06:11:01.145Z,7.25
2022-11-26T06:14:03.793Z,7.25
2022-11-26T06:17:06.429Z,7.37
2022-11-26T06:20:11.758Z,7.46
2022-11-26T06:23:14.465Z,7.46
2022-11-26T06:26:17.120Z,7.21
2022-11-26T06:29:24.814Z,7.37
2022-11-26T06:32:30.451Z,7.42
2022-11-26T06:35:35.139Z,7.49
2022-11-26T06:38:37.822Z,7.35
2022-11-26T06:41:40.561Z,6.98
2022-11-26T06:44:43.163Z,6.43
2022-11-26T06:47:47.627Z,6.46
2022-11-26T06:50:51.982Z,6.84
2022-11-26T06:53:54.645Z,6.82
2022-11-26T06:56:57.461Z,6.77
2022-11-26T07:00:00.080Z,7.11
2022-11-26T07:03:02.733Z,6.90
2022-11-26T07:06:07.185Z,6.95
2022-11-26T07:09:11.461Z,6.95
2022-11-26T07:12:14.083Z,7.23
2022-11-26T07:15:16.740Z,7.10
2022-11-26T07:18:19.408Z,7.26
2022-11-26T07:21:24.697Z,7.28
2022-11-26T07:24:27.488Z,7.31
2022-11-26T07:27:30.140Z,7.45
2022-11-26T07:30:32.773Z,7.39
2022-11-26T07:33:35.423Z,7.24
2022-11-26T07:36:42.959Z,7.41
2022-11-26T07:39:45.612Z,7.49
2022-11-26T07:42:51.922Z,7.40
2022-11-26T07:45:55.963Z,7.35
2022-11-26T07:48:58.867Z,7.50
2022-11-26T07:52:02.851Z,7.58
2022-11-26T07:55:11.020Z,7.62
2022-11-26T07:58:16.163Z,7.65
2022-11-26T08:01:21.164Z,7.65
2022-11-26T08:04:23.830Z,7.54
2022-11-26T08:07:29.547Z,7.54
2022-11-26T08:10:32.366Z,7.61
2022-11-26T08:13:35.009Z,7.79
2022-11-26T08:16:37.928Z,7.72
2022-11-26T08:19:40.611Z,7.64
2022-11-26T08:22:44.575Z,7.44
2022-11-26T08:26:14.047Z,7.33
2022-11-26T08:29:09.763Z,7.28
2022-11-26T08:32:12.425Z,7.12
2022-11-26T08:35:15.225Z,7.38
2022-11-26T08:38:19.171Z,7.18
2022-11-26T08:41:21.835Z,7.19
2022-11-26T08:44:24.588Z,7.42
2022-11-26T08:47:27.218Z,7.45
2022-11-26T08:50:29.929Z,7.51
2022-11-26T08:53:35.476Z,7.73
2022-11-26T08:56:38.227Z,7.71
2022-11-26T08:59:40.844Z,7.62
2022-11-26T09:02:43.512Z,7.46
2022-11-26T09:05:46.180Z,7.74
2022-11-26T09:09:07.366Z,7.92
2022-11-26T09:12:11.507Z,8.01
2022-11-26T09:15:14.205Z,8.01
2022-11-26T09:18:16.893Z,7.89
2022-11-26T09:21:19.916Z,7.60
2022-11-26T09:24:23.961Z,7.54
2022-11-26T09:27:26.595Z,7.71
2022-11-26T09:30:29.247Z,7.77
2022-11-26T09:33:32.580Z,7.71
2022-11-26T09:36:35.268Z,7.65
2022-11-26T09:39:39.263Z,7.71
2022-11-26T09:42:53.796Z,7.91
2022-11-26T09:46:00.778Z,7.91
2022-11-26T09:49:05.512Z,7.70
2022-11-26T09:52:10.393Z,7.98
2022-11-26T09:55:19.786Z,7.73
2022-11-26T09:58:28.731Z,7.81
2022-11-26T10:01:34.102Z,7.59
2022-11-26T10:04:37.534Z,7.77
2022-11-26T10:07:56.090Z,7.85
2022-11-26T10:11:09.063Z,7.97
2022-11-26T10:14:26.364Z,7.74
2022-11-26T10:17:40.870Z,8.04
2022-11-26T10:21:01.697Z,7.88
2022-11-26T10:24:11.140Z,7.46
2022-11-26T10:27:18.256Z,7.51
2022-11-26T10:30:24.728Z,7.61
2022-11-26T10:33:33.617Z,7.94
2022-11-26T10:36:39.212Z,8.08
2022-11-26T10:39:41.833Z,8.25
2022-11-26T10:42:56.502Z,7.80
2022-11-26T10:45:59.182Z,7.80
2022-11-26T10:49:22.897Z,8.12
2022-11-26T10:52:28.403Z,8.33
2022-11-26T10:55:35.340Z,8.44
2022-11-26T10:58:44.064Z,8.51
2022-11-26T11:01:51.719Z,8.46
2022-11-26T11:04:59.124Z,8.36
2022-11-26T11:08:01.783Z,8.54
2022-11-26T11:11:06.047Z,8.64
2022-11-26T11:14:28.319Z,8.10
2022-11-26T11:17:34.017Z,8.18
2022-11-26T11:20:38.592Z,8.47
2022-11-26T11:24:07.266Z,8.60
2022-11-26T11:27:03.879Z,8.68
2022-11-26T11:30:24.382Z,8.38
2022-11-26T11:33:28.662Z,8.08
2022-11-26T11:36:31.310Z,8.19
2022-11-26T11:39:36.261Z,8.31
2022-11-26T11:42:40.391Z,8.22
2022-11-26T11:45:53.279Z,8.31
2022-11-26T11:49:06.935Z,8.43
2022-11-26T11:52:20.171Z,8.26
2022-11-26T11:55:31.130Z,8.46
2022-11-26T11:58:50.832Z,8.01
2022-11-26T12:02:20.304Z,8.15
2022-11-26T12:05:37.296Z,8.11
2022-11-26T12:08:52.572Z,8.36
2022-11-26T12:12:00.019Z,8.52
2022-11-26T12:15:09.136Z,8.63
2022-11-26T12:18:23.991Z,8.35
2022-11-26T12:21:35.764Z,8.44
2022-11-26T12:24:42.017Z,8.28
2022-11-26T12:27:48.871Z,8.50
2022-11-26T12:30:56.584Z,8.69
2022-11-26T12:34:08.835Z,8.78
2022-11-26T12:37:20.326Z,8.44
2022-11-26T12:40:32.571Z,8.69
2022-11-26T12:43:51.007Z,8.60
2022-11-26T12:47:01.520Z,8.77
2022-11-26T12:50:13.923Z,8.65
2022-11-26T12:53:25.238Z,8.56
2022-11-26T12:56:33.972Z,8.78
2022-11-26T12:59:41.044Z,8.80
2022-11-26T13:02:47.227Z,8.73
2022-11-26T13:05:58.666Z,8.77
2022-11-26T13:09:09.108Z,8.98
2022-11-26T13:12:23.435Z,9.11
2022-11-26T13:15:32.805Z,9.07
2022-11-26T13:18:39.949Z,8.82
2022-11-26T13:21:57.088Z,8.87
2022-11-26T13:25:20.001Z,8.93
2022-11-26T13:28:37.082Z,8.93
2022-11-26T13:31:57.311Z,8.96
2022-11-26T13:35:14.535Z,9.11
2022-11-26T13:38:25.759Z,9.06
2022-11-26T13:41:53.220Z,8.89
2022-11-26T13:45:24.745Z,8.99
2022-11-26T13:48:36.149Z,9.07
2022-11-26T13:51:45.843Z,8.88
2022-11-26T13:54:55.147Z,9.05
2022-11-26T13:58:02.224Z,8.86
2022-11-26T14:01:26.850Z,9.02
2022-11-26T14:04:54.575Z,9.23
2022-11-26T14:08:36.565Z,9.15
2022-11-26T14:11:57.072Z,9.04
2022-11-26T14:14:59.755Z,8.93
2022-11-26T14:18:02.380Z,8.72
2022-11-26T14:21:14.900Z,8.70
2022-11-26T14:24:54.360Z,8.81
2022-11-26T14:27:59.063Z,9.02
2022-11-26T14:31:08.912Z,9.01
2022-11-26T14:34:16.594Z,8.91
2022-11-26T14:37:21.646Z,9.00
2022-11-26T14:40:26.926Z,8.89
2022-11-26T14:43:31.165Z,8.68
2022-11-26T14:46:33.889Z,8.47
2022-11-26T14:49:39.563Z,8.54
2022-11-26T14:52:44.215Z,8.62
2022-11-26T14:55:47.011Z,8.61
2022-11-26T14:58:53.857Z,8.57
2022-11-26T15:01:56.519Z,8.64
2022-11-26T15:05:01.045Z,8.50
2022-11-26T15:08:07.098Z,8.61
2022-11-26T15:11:11.513Z,8.60
2022-11-26T15:14:23.006Z,8.46
2022-11-26T15:17:28.529Z,8.63
2022-11-26T15:20:31.255Z,8.42
2022-11-26T15:23:37.856Z,8.36
2022-11-26T15:26:40.480Z,8.59
2022-11-26T15:29:50.879Z,8.54
2022-11-26T15:33:02.068Z,8.73
2022-11-26T15:36:06.040Z,8.79
2022-11-26T15:39:24.101Z,8.85
2022-11-26T15:42:30.541Z,8.86
2022-11-26T15:45:41.432Z,8.79
2022-11-26T15:48:53.391Z,8.72
2022-11-26T15:52:00.391Z,8.56
2022-11-26T15:55:15.667Z,8.54
2022-11-26T15:58:21.900Z,8.48
2022-11-26T16:01:28.352Z,8.41
2022-11-26T16:04:45.041Z,8.54
2022-11-26T16:07:58.135Z,8.49
2022-11-26T16:11:08.825Z,8.37
2022-11-26T16:14:29.613Z,8.03
2022-11-26T16:17:33.868Z,7.89
2022-11-26T16:20:36.497Z,8.24
2022-11-26T16:23:39.226Z,8.43
2022-11-26T16:26:54.857Z,8.25
2022-11-26T16:29:57.765Z,8.25
2022-11-26T16:33:01.743Z,8.07
2022-11-26T16:36:17.698Z,8.20
2022-11-26T16:39:20.340Z,7.78
2022-11-26T16:42:24.465Z,8.00
2022-11-26T16:45:27.050Z,8.19
2022-11-26T16:48:31.069Z,7.96
2022-11-26T16:51:33.836Z,8.22
2022-11-26T16:54:36.465Z,8.13
2022-11-26T16:57:39.308Z,8.31
2022-11-26T17:00:42.149Z,8.53
2022-11-26T17:03:46.442Z,8.48
2022-11-26T17:06:49.263Z,8.26
2022-11-26T17:09:52.591Z,8.52
2022-11-26T17:12:55.278Z,8.68
2022-11-26T17:15:58.585Z,8.58
2022-11-26T17:19:02.560Z,8.74
2022-11-26T17:22:05.391Z,8.86
2022-11-26T17:25:09.878Z,8.74
2022-11-26T17:28:13.465Z,8.62
2022-11-26T17:31:16.198Z,8.69
2022-11-26T17:34:20.273Z,8.40
2022-11-26T17:37:25.439Z,8.26
2022-11-26T17:40:29.536Z,8.31
2022-11-26T17:43:32.135Z,8.55
2022-11-26T17:46:48.071Z,8.51
2022-11-26T17:49:59.056Z,8.38
2022-11-26T17:53:01.640Z,8.31
2022-11-26T17:56:04.359Z,8.21
2022-11-26T17:59:07.039Z,8.48
2022-11-26T18:02:10.367Z,8.64
2022-11-26T18:05:15.061Z,8.50
2022-11-26T18:08:17.697Z,8.67
2022-11-26T18:11:20.410Z,8.82
2022-11-26T18:14:23.989Z,8.90
2022-11-26T18:17:26.913Z,8.75
2022-11-26T18:20:30.956Z,8.90
2022-11-26T18:23:33.891Z,8.76
2022-11-26T18:26:37.399Z,8.81
2022-11-26T18:29:40.382Z,8.69
2022-11-26T18:32:43.355Z,8.49
2022-11-26T18:35:47.293Z,8.36
2022-11-26T18:38:49.989Z,8.26
2022-11-26T18:41:54.577Z,8.49
2022-11-26T18:45:03.520Z,8.71
2022-11-26T18:48:06.528Z,8.78
2022-11-26T18:51:11.907Z,8.74
2022-11-26T18:54:16.567Z,8.92
2022-11-26T18:57:19.211Z,9.03
2022-11-26T19:00:22.386Z,8.96
2022-11-26T19:03:25.911Z,9.05
2022-11-26T19:06:31.776Z,9.13
2022-11-26T19:09:34.395Z,8.86
2022-11-26T19:12:37.092Z,9.04
2022-11-26T19:15:41.437Z,8.87
2022-11-26T19:18:45.083Z,8.96
2022-11-26T19:21:50.200Z,8.74
2022-11-26T19:24:52.801Z,9.03
2022-11-26T19:27:55.422Z,9.13
2022-11-26T19:31:03.297Z,9.05
2022-11-26T19:34:08.955Z,9.14
2022-11-26T19:37:12.899Z,9.19
2022-11-26T19:40:16.129Z,9.20
2022-11-26T19:43:18.867Z,9.21
2022-11-26T19:46:23.756Z,9.17
2022-11-26T19:49:27.619Z,9.15
2022-11-26T19:52:31.564Z,9.07
2022-11-26T19:55:34.190Z,9.13
2022-11-26T19:58:37.847Z,9.10
2022-11-26T20:01:40.692Z,9.05
2022-11-26T20:04:43.469Z,9.01
2022-11-26T20:07:47.466Z,9.06
2022-11-26T20:10:50.260Z,9.03
2022-11-26T20:13:53.149Z,8.97
2022-11-26T20:17:00.737Z,8.93
2022-11-26T20:20:04.381Z,8.90
2022-11-26T20:23:08.868Z,8.88
2022-11-26T20:26:17.029Z,8.81
2022-11-26T20:29:21.844Z,8.86
2022-11-26T20:32:24.469Z,8.79
2022-11-26T20:35:27.070Z,8.87
2022-11-26T20:38:31.029Z,8.89
2022-11-26T20:41:34.457Z,8.91
2022-11-26T20:44:37.097Z,8.89
2022-11-26T20:47:39.920Z,8.86
2022-11-26T20:50:42.520Z,8.84
2022-11-26T20:53:46.889Z,8.81
2022-11-26T20:56:49.516Z,8.88
2022-11-26T20:59:52.175Z,8.87
2022-11-26T21:02:54.814Z,8.84
2022-11-26T21:06:02.582Z,8.87
2022-11-26T21:09:07.374Z,8.88
2022-11-26T21:12:10.010Z,8.90
2022-11-26T21:15:12.916Z,8.91
2022-11-26T21:18:16.193Z,8.88
2022-11-26T21:21:19.336Z,8.90
2022-11-26T21:24:23.443Z,8.94
2022-11-26T21:27:26.052Z,8.94
2022-11-26T21:30:28.700Z,8.88
2022-11-26T21:33:31.396Z,8.96
2022-11-26T21:36:35.719Z,8.96
2022-11-26T21:39:39.932Z,8.73
2022-11-26T21:42:42.682Z,8.88
2022-11-26T21:45:45.380Z,8.95
2022-11-26T21:48:48.067Z,8.99
2022-11-26T21:51:50.706Z,8.91
2022-11-26T21:54:56.592Z,8.99
2022-11-26T21:58:02.720Z,8.96
2022-11-26T22:01:16.507Z,8.77
2022-11-26T22:04:20.684Z,8.90
2022-11-26T22:07:23.370Z,8.88
2022-11-26T22:10:29.767Z,8.89
2022-11-26T22:13:35.902Z,8.84
2022-11-26T22:16:38.594Z,8.87
2022-11-26T22:19:41.789Z,8.94
2022-11-26T22:22:44.566Z,8.94
2022-11-26T22:25:48.536Z,8.91
2022-11-26T22:28:52.244Z,8.99
2022-11-26T22:31:54.871Z,9.05
2022-11-26T22:34:57.480Z,8.91
2022-11-26T22:38:00.187Z,8.95
2022-11-26T22:41:05.054Z,8.98
2022-11-26T22:44:08.273Z,8.95
2022-11-26T22:47:11.284Z,8.75
2022-11-26T22:50:14.216Z,8.38
2022-11-26T22:53:16.958Z,8.65
2022-11-26T22:56:21.528Z,8.67
2022-11-26T22:59:24.162Z,8.61
2022-11-26T23:02:27.610Z,8.81
2022-11-26T23:05:30.255Z,8.75
2022-11-26T23:08:32.912Z,8.75
2022-11-26T23:11:39.722Z,8.86
2022-11-26T23:14:42.350Z,8.87
2022-11-26T23:17:44.978Z,8.88
2022-11-26T23:20:47.786Z,8.94
2022-11-26T23:23:50.812Z,8.87
2022-11-26T23:26:55.019Z,8.94
2022-11-26T23:29:58.321Z,8.95
2022-11-26T23:33:00.959Z,8.92
2022-11-26T23:36:03.731Z,8.91
2022-11-26T23:39:08.325Z,8.89
2022-11-26T23:42:12.312Z,8.90
2022-11-26T23:45:14.939Z,8.80
2022-11-26T23:48:17.991Z,8.77
2022-11-26T23:51:22.909Z,8.75
2022-11-26T23:54:25.667Z,8.64
2022-11-26T23:57:29.631Z,8.60
